Huvudsida
METAR-TAF:

METAR-TAF

Flygplatser :

Stavangers flygplats. Sola

Stavanger, Norge

latitud: 58-53N, longitud: 005-38E, höjd: 0 m

Aktuellt väderrapport

Denna rapport gjordes för 34 minuter sedan, klockan 12:50 UTC
Vind 8 kt från ost/sydost
Temperatur 3°C
Fuktighet 65%
Tryck 1031 hPa
Sikt 10 km eller mer
Inga moln under 1 500 m eller inga cumulonimbus

METAR: ENZV 121250Z 12008KT CAVOK 03/M03 Q1031 NOSIG

Tid: 14:24 (13:24 UTC)

Väderprognos

Prognos gäller från 12 kl. 12 UTC till 13 kl. 12 UTC
Vind 8 kt från ost/sydost
Sikt 10 km eller mer
Inga moln under 1 500 m eller inga cumulonimbus

TAF: ENZV 1212/1312 12008KT CAVOK

Aktuella väderrapporter och prognoser från 4000 flygplatser (METAR- och TAF-rapporter).

De tillgängliga stationerna syns som gula och röda prickar på kartan.

För musen över prickarna för att se namnen på stationerna.

Klicka sedan för att få väderrapporter och prognoser.

För att ändra kartan: Klicka på de gröna knapparna med ett svart kors på för att zooma in; den gröna knappen med ett streck på för att zooma ut; eller på de gröna pilarna för angränsande kartor.


METAR-TAF: